Stevenston, United Kingdom
Current Conditions -  °F | °C
As of 7:50 PM on Sunday 21 Dec 2014 (Local Time) from EGPK Reporting Station
Light Rain Light Rain  
Wind Chill: 52°   Ceiling: 1000
Heat Index: 52°   Visibility: 3mi
Dew Point: 52°   Wind: 17mph
Humidity: 100%   Direction: 220°SW
Pressure: 29.71"   Gusts: NA
Location:  55.64°N, 4.75°W
Report Text: EGPK 211950Z 22015KT 5000 -RA SCT003 BKN010 11/11 Q1006
Loading
Personal Weather Stations






























Interactive Weather Map New forecast layout! Learn more

10-Day Weather Forecast

Advertisements
Track Severe Weather on mobile